createdAt,value
2018-12-29T00:00:45.426Z,35.33
2018-12-29T00:03:18.744Z,27.93
2018-12-29T00:05:51.804Z,42.13
2018-12-29T00:08:24.950Z,37.50
2018-12-29T00:11:00.437Z,43.83
2018-12-29T00:13:32.590Z,32.60
2018-12-29T00:16:05.642Z,34.47
2018-12-29T00:18:38.907Z,49.10
2018-12-29T00:21:12.079Z,42.40
2018-12-29T00:23:45.041Z,37.60
2018-12-29T00:26:18.112Z,34.70
2018-12-29T00:28:51.533Z,69.13
2018-12-29T00:31:24.670Z,39.20
2018-12-29T00:33:57.776Z,40.30
2018-12-29T00:36:33.491Z,49.60
2018-12-29T00:39:07.580Z,37.33
2018-12-29T00:41:40.522Z,50.87
2018-12-29T00:44:13.486Z,43.47
2018-12-29T00:46:46.240Z,47.90
2018-12-29T00:49:19.121Z,47.30
2018-12-29T00:51:52.211Z,50.10
2018-12-29T00:54:26.475Z,45.57
2018-12-29T00:56:59.756Z,50.80
2018-12-29T00:59:33.324Z,42.37
2018-12-29T01:02:06.629Z,49.90
2018-12-29T01:04:39.611Z,62.10
2018-12-29T01:07:12.692Z,56.23
2018-12-29T01:09:45.736Z,55.93
2018-12-29T01:12:18.593Z,47.97
2018-12-29T01:14:51.807Z,48.37
2018-12-29T01:17:24.855Z,60.17
2018-12-29T01:19:57.962Z,51.13
2018-12-29T01:22:30.879Z,63.30
2018-12-29T01:25:03.988Z,51.87
2018-12-29T01:27:37.042Z,47.30
2018-12-29T01:30:10.396Z,59.57
2018-12-29T01:32:43.462Z,56.60
2018-12-29T01:35:16.561Z,58.53
2018-12-29T01:37:49.602Z,48.43
2018-12-29T01:40:22.602Z,69.57
2018-12-29T01:42:55.614Z,53.07
2018-12-29T01:45:28.699Z,73.00
2018-12-29T01:48:01.892Z,51.83
2018-12-29T01:50:34.977Z,58.63
2018-12-29T01:53:08.060Z,60.07
2018-12-29T01:55:41.015Z,62.87
2018-12-29T01:58:14.218Z,56.30
2018-12-29T02:00:47.250Z,53.53
2018-12-29T02:03:20.402Z,62.80
2018-12-29T02:05:53.592Z,67.87
2018-12-29T02:08:26.732Z,56.43
2018-12-29T02:10:59.909Z,63.53
2018-12-29T02:13:32.857Z,57.00
2018-12-29T02:16:06.047Z,62.47
2018-12-29T02:18:39.148Z,70.33
2018-12-29T02:21:12.022Z,66.23
2018-12-29T02:23:45.020Z,65.27
2018-12-29T02:26:18.095Z,57.83
2018-12-29T02:28:51.199Z,66.47
2018-12-29T02:31:24.307Z,55.97
2018-12-29T02:33:57.501Z,53.63
2018-12-29T02:36:30.727Z,60.43
2018-12-29T02:39:03.759Z,61.27
2018-12-29T02:41:36.970Z,61.10
2018-12-29T02:44:11.030Z,51.17
2018-12-29T02:46:44.308Z,54.73
2018-12-29T02:49:17.343Z,53.17
2018-12-29T02:51:50.606Z,62.27
2018-12-29T02:54:23.667Z,54.80
2018-12-29T02:56:56.806Z,60.20
2018-12-29T02:59:29.798Z,46.93
2018-12-29T03:02:02.591Z,58.57
2018-12-29T03:04:35.297Z,49.73
2018-12-29T03:07:07.981Z,55.20
2018-12-29T03:09:41.654Z,54.47
2018-12-29T03:12:14.569Z,49.53
2018-12-29T03:14:47.536Z,57.43
2018-12-29T03:17:20.841Z,54.42
2018-12-29T03:19:54.273Z,54.48
2018-12-29T03:22:27.262Z,50.80
2018-12-29T03:25:00.490Z,47.03
2018-12-29T03:27:33.689Z,46.02
2018-12-29T03:30:06.926Z,56.70
2018-12-29T03:32:40.210Z,43.60
2018-12-29T03:35:13.378Z,37.47
2018-12-29T03:37:46.608Z,52.17
2018-12-29T03:40:19.931Z,46.87
2018-12-29T03:42:53.175Z,41.83
2018-12-29T03:45:26.210Z,39.10
2018-12-29T03:47:59.221Z,43.53
2018-12-29T03:50:33.046Z,40.85
2018-12-29T03:53:12.071Z,36.97
2018-12-29T03:55:45.978Z,47.27
2018-12-29T03:58:36.598Z,46.53
2018-12-29T04:01:09.579Z,52.67
2018-12-29T04:03:42.609Z,46.23
2018-12-29T04:06:15.779Z,45.20
2018-12-29T04:09:23.308Z,40.67
2018-12-29T04:11:56.397Z,43.65
2018-12-29T04:14:29.389Z,34.57
2018-12-29T04:17:02.295Z,33.73
2018-12-29T04:19:35.130Z,42.13
2018-12-29T04:22:08.478Z,41.30
2018-12-29T04:24:41.421Z,38.78
2018-12-29T04:27:14.271Z,38.13
2018-12-29T04:29:47.129Z,45.03
2018-12-29T04:32:19.855Z,39.80
2018-12-29T04:34:52.660Z,40.43
2018-12-29T04:37:28.726Z,34.90
2018-12-29T04:40:01.799Z,37.07
2018-12-29T04:42:34.800Z,34.15
2018-12-29T04:45:07.843Z,30.68
2018-12-29T04:47:40.801Z,32.93
2018-12-29T04:50:14.757Z,32.63
2018-12-29T04:52:47.886Z,32.23
2018-12-29T04:55:21.051Z,25.93
2018-12-29T04:57:54.474Z,28.30
2018-12-29T05:00:29.274Z,26.25
2018-12-29T05:03:03.730Z,34.30
2018-12-29T05:05:37.148Z,24.57
2018-12-29T05:08:10.427Z,25.93
2018-12-29T05:10:44.151Z,27.33
2018-12-29T05:13:17.527Z,32.25
2018-12-29T05:15:50.669Z,25.70
2018-12-29T05:18:23.388Z,31.13
2018-12-29T05:20:56.392Z,29.10
2018-12-29T05:23:30.104Z,26.30
2018-12-29T05:26:04.228Z,22.98
2018-12-29T05:28:37.918Z,24.10
2018-12-29T05:31:11.365Z,28.15
2018-12-29T05:33:44.458Z,18.65
2018-12-29T05:36:18.116Z,23.00
2018-12-29T05:38:51.250Z,23.17
2018-12-29T05:41:24.919Z,29.00
2018-12-29T05:43:58.627Z,22.20
2018-12-29T05:46:31.476Z,23.90
2018-12-29T05:49:04.606Z,24.72
2018-12-29T05:51:38.687Z,26.20
2018-12-29T05:54:11.802Z,26.10
2018-12-29T05:56:44.764Z,22.90
2018-12-29T05:59:17.926Z,28.37
2018-12-29T06:01:50.999Z,24.73
2018-12-29T06:04:24.730Z,20.70
2018-12-29T06:06:57.888Z,20.67
2018-12-29T06:09:30.804Z,18.90
2018-12-29T06:12:03.908Z,22.87
2018-12-29T06:14:36.966Z,16.50
2018-12-29T06:17:10.024Z,22.53
2018-12-29T06:19:43.145Z,19.07
2018-12-29T06:22:16.421Z,30.33
2018-12-29T06:24:49.485Z,29.80
2018-12-29T06:27:22.607Z,23.20
2018-12-29T06:29:55.670Z,25.33
2018-12-29T06:32:28.530Z,26.80
2018-12-29T06:35:01.934Z,25.93
2018-12-29T06:37:36.262Z,26.53
2018-12-29T06:40:09.756Z,20.70
2018-12-29T06:42:43.055Z,21.90
2018-12-29T06:45:16.184Z,20.93
2018-12-29T06:47:49.811Z,21.17
2018-12-29T06:50:22.837Z,20.70
2018-12-29T06:52:56.040Z,25.73
2018-12-29T06:55:29.253Z,18.40
2018-12-29T06:58:02.761Z,18.47
2018-12-29T07:00:36.735Z,26.07
2018-12-29T07:03:10.254Z,15.83
2018-12-29T07:05:43.712Z,17.80
2018-12-29T07:08:16.926Z,24.20
2018-12-29T07:10:50.016Z,20.80
2018-12-29T07:13:22.951Z,19.93
2018-12-29T07:15:55.976Z,22.73
2018-12-29T07:18:29.150Z,36.47
2018-12-29T07:21:02.153Z,21.17
2018-12-29T07:23:35.473Z,18.87
2018-12-29T07:26:08.792Z,21.73
2018-12-29T07:28:41.964Z,26.03
2018-12-29T07:31:16.223Z,23.80
2018-12-29T07:33:51.819Z,30.67
2018-12-29T07:36:25.124Z,21.93
2018-12-29T07:38:58.368Z,20.80
2018-12-29T07:41:33.093Z,25.83
2018-12-29T07:44:08.306Z,23.10
2018-12-29T07:46:49.545Z,19.93
2018-12-29T07:49:19.907Z,20.63
2018-12-29T07:51:54.099Z,16.83
2018-12-29T07:54:27.412Z,20.07
2018-12-29T07:57:00.339Z,21.23
2018-12-29T07:59:34.487Z,24.00
2018-12-29T08:02:07.714Z,19.40
2018-12-29T08:04:40.738Z,16.37
2018-12-29T08:07:14.195Z,19.77
2018-12-29T08:09:47.347Z,19.60
2018-12-29T08:12:20.367Z,16.07
2018-12-29T08:14:53.468Z,16.07
2018-12-29T08:17:26.597Z,19.53
2018-12-29T08:19:59.850Z,16.20
2018-12-29T08:22:33.111Z,17.87
2018-12-29T08:25:06.435Z,13.60
2018-12-29T08:27:40.708Z,16.80
2018-12-29T08:30:13.874Z,17.12
2018-12-29T08:32:47.005Z,17.13
2018-12-29T08:35:20.403Z,16.48
2018-12-29T08:37:53.552Z,15.03
2018-12-29T08:40:27.554Z,18.60
2018-12-29T08:43:01.507Z,21.27
2018-12-29T08:45:35.621Z,20.07
2018-12-29T08:48:10.879Z,24.57
2018-12-29T08:50:44.527Z,16.62
2018-12-29T08:53:19.036Z,16.17
2018-12-29T08:55:54.853Z,17.83
2018-12-29T08:58:30.684Z,17.77
2018-12-29T09:01:04.765Z,20.67
2018-12-29T09:03:39.143Z,29.90
2018-12-29T09:06:13.196Z,27.37
2018-12-29T09:08:46.938Z,23.17
2018-12-29T09:11:21.267Z,31.60
2018-12-29T09:14:14.404Z,25.77
2018-12-29T09:16:47.548Z,30.97
2018-12-29T09:19:27.010Z,37.17
2018-12-29T09:21:55.056Z,30.50
2018-12-29T09:24:28.174Z,28.60
2018-12-29T09:27:03.594Z,27.73
2018-12-29T09:29:35.472Z,28.00
2018-12-29T09:32:08.526Z,35.47
2018-12-29T09:34:41.541Z,34.23
2018-12-29T09:37:14.683Z,28.97
2018-12-29T09:39:47.715Z,43.87
2018-12-29T09:42:20.637Z,33.93
2018-12-29T09:44:53.606Z,38.67
2018-12-29T09:47:26.397Z,36.83
2018-12-29T09:50:00.418Z,42.67
2018-12-29T09:52:34.074Z,41.75
2018-12-29T09:55:16.670Z,33.97
2018-12-29T09:57:50.517Z,35.10
2018-12-29T10:00:24.599Z,30.10
2018-12-29T10:03:00.599Z,38.47
2018-12-29T10:05:34.068Z,28.60
2018-12-29T10:08:07.628Z,33.20
2018-12-29T10:10:44.034Z,41.73
2018-12-29T10:13:17.604Z,51.33
2018-12-29T10:15:51.764Z,45.35
2018-12-29T10:18:25.081Z,40.87
2018-12-29T10:20:58.460Z,41.00
2018-12-29T10:23:32.143Z,47.00
2018-12-29T10:26:06.641Z,44.53
2018-12-29T10:28:40.143Z,46.07
2018-12-29T10:31:13.254Z,48.27
2018-12-29T10:33:46.630Z,55.83
2018-12-29T10:36:19.661Z,56.30
2018-12-29T10:38:52.681Z,55.47
2018-12-29T10:41:26.308Z,56.37
2018-12-29T10:43:59.442Z,53.27
2018-12-29T10:46:32.563Z,52.57
2018-12-29T10:49:05.825Z,59.80
2018-12-29T10:51:38.931Z,63.30
2018-12-29T10:54:12.142Z,54.90
2018-12-29T10:56:45.400Z,59.60
2018-12-29T10:59:18.509Z,62.00
2018-12-29T11:01:51.944Z,65.43
2018-12-29T11:04:25.186Z,57.67
2018-12-29T11:07:18.141Z,73.27
2018-12-29T11:09:51.429Z,64.13
2018-12-29T11:12:24.560Z,62.17
2018-12-29T11:14:57.787Z,61.47
2018-12-29T11:17:30.790Z,65.27
2018-12-29T11:20:06.604Z,61.90
2018-12-29T11:22:39.788Z,63.00
2018-12-29T11:25:13.404Z,62.80
2018-12-29T11:27:46.870Z,66.07
2018-12-29T11:30:20.054Z,61.33
2018-12-29T11:32:53.184Z,60.37
2018-12-29T11:35:29.042Z,73.37
2018-12-29T11:38:01.314Z,66.33
2018-12-29T11:40:34.448Z,60.93
2018-12-29T11:43:07.795Z,63.67
2018-12-29T11:45:40.822Z,86.70
2018-12-29T11:48:13.787Z,73.97
2018-12-29T11:50:46.920Z,68.23
2018-12-29T11:53:19.958Z,99.80
2018-12-29T11:55:53.077Z,95.47
2018-12-29T11:58:26.508Z,115.20
2018-12-29T12:00:59.587Z,97.73
2018-12-29T12:03:32.552Z,104.80
2018-12-29T12:06:05.472Z,90.83
2018-12-29T12:08:39.070Z,100.03
2018-12-29T12:11:12.201Z,96.37
2018-12-29T12:13:45.235Z,100.27
2018-12-29T12:16:18.296Z,110.47
2018-12-29T12:18:51.430Z,94.50
2018-12-29T12:21:24.520Z,84.80
2018-12-29T12:23:58.733Z,88.57
2018-12-29T12:26:32.174Z,91.77
2018-12-29T12:29:05.080Z,85.67
2018-12-29T12:31:39.618Z,89.07
2018-12-29T12:34:12.985Z,78.50
2018-12-29T12:36:46.216Z,95.17
2018-12-29T12:39:19.308Z,86.67
2018-12-29T12:41:52.443Z,81.07
2018-12-29T12:44:25.998Z,73.03
2018-12-29T12:46:59.663Z,91.90
2018-12-29T12:49:32.894Z,75.65
2018-12-29T12:52:06.108Z,85.73
2018-12-29T12:54:39.348Z,87.70
2018-12-29T12:57:12.633Z,78.20
2018-12-29T12:59:46.022Z,85.17
2018-12-29T13:02:19.163Z,88.40
2018-12-29T13:04:52.158Z,83.15
2018-12-29T13:07:25.581Z,77.30
2018-12-29T13:09:58.945Z,78.87
2018-12-29T13:12:32.675Z,79.97
2018-12-29T13:15:05.884Z,71.70
2018-12-29T13:17:41.767Z,77.62
2018-12-29T13:20:14.921Z,75.73
2018-12-29T13:22:48.295Z,88.40
2018-12-29T13:25:21.570Z,69.43
2018-12-29T13:27:54.679Z,81.37
2018-12-29T13:30:27.687Z,72.93
2018-12-29T13:33:00.591Z,73.50
2018-12-29T13:35:33.849Z,69.43
2018-12-29T13:38:07.734Z,65.20
2018-12-29T13:40:40.940Z,77.80
2018-12-29T13:43:14.378Z,66.45
2018-12-29T13:45:47.544Z,71.62
2018-12-29T13:48:21.204Z,75.67
2018-12-29T13:50:55.059Z,76.57
2018-12-29T13:53:28.433Z,73.87
2018-12-29T13:56:01.680Z,75.83
2018-12-29T13:58:34.712Z,72.90
2018-12-29T14:01:07.788Z,81.60
2018-12-29T14:03:41.277Z,75.23
2018-12-29T14:06:14.195Z,85.43
2018-12-29T14:08:47.160Z,71.80
2018-12-29T14:11:20.209Z,77.33
2018-12-29T14:13:53.412Z,85.27
2018-12-29T14:16:34.023Z,83.97
2018-12-29T14:19:07.189Z,78.87
2018-12-29T14:21:40.359Z,82.00
2018-12-29T14:24:13.713Z,79.20
2018-12-29T14:26:46.934Z,76.43
2018-12-29T14:29:19.961Z,88.80
2018-12-29T14:31:52.748Z,78.78
2018-12-29T14:34:25.473Z,80.50
2018-12-29T14:36:58.509Z,91.13
2018-12-29T14:39:31.539Z,77.50
2018-12-29T14:42:07.858Z,73.37
2018-12-29T14:44:40.992Z,78.25
2018-12-29T14:47:14.161Z,76.80
2018-12-29T14:49:47.341Z,76.23
2018-12-29T14:52:20.421Z,76.27
2018-12-29T14:54:53.513Z,72.50
2018-12-29T14:57:26.538Z,81.37
2018-12-29T14:59:59.509Z,68.37
2018-12-29T15:02:32.734Z,68.25
2018-12-29T15:05:05.791Z,67.87
2018-12-29T15:07:38.949Z,71.53
2018-12-29T15:10:11.732Z,82.05
2018-12-29T15:12:44.774Z,76.10
2018-12-29T15:15:17.954Z,66.00
2018-12-29T15:17:51.019Z,73.25
2018-12-29T15:20:24.625Z,74.92
2018-12-29T15:22:57.949Z,67.10
2018-12-29T15:25:31.024Z,62.50
2018-12-29T15:28:04.064Z,66.60
2018-12-29T15:30:37.310Z,72.63
2018-12-29T15:33:10.483Z,64.47
2018-12-29T15:35:43.785Z,63.10
2018-12-29T15:38:16.562Z,73.37
2018-12-29T15:40:49.552Z,64.67
2018-12-29T15:43:22.541Z,65.90
2018-12-29T15:45:55.669Z,64.77
2018-12-29T15:48:29.022Z,65.37
2018-12-29T15:51:02.145Z,73.10
2018-12-29T15:53:35.158Z,59.88
2018-12-29T15:56:08.176Z,64.30
2018-12-29T15:58:41.343Z,64.58
2018-12-29T16:01:14.963Z,63.53
2018-12-29T16:03:47.924Z,65.07
2018-12-29T16:06:21.015Z,58.27
2018-12-29T16:08:53.993Z,66.37
2018-12-29T16:11:27.777Z,57.83
2018-12-29T16:14:01.157Z,62.48
2018-12-29T16:16:34.238Z,69.07
2018-12-29T16:19:07.342Z,61.13
2018-12-29T16:21:40.096Z,52.45
2018-12-29T16:24:14.532Z,64.17
2018-12-29T16:26:47.485Z,59.70
2018-12-29T16:29:20.673Z,67.20
2018-12-29T16:31:53.758Z,66.60
2018-12-29T16:34:27.113Z,54.47
2018-12-29T16:37:00.250Z,70.85
2018-12-29T16:39:33.770Z,60.30
2018-12-29T16:42:06.870Z,62.07
2018-12-29T16:44:40.041Z,66.53
2018-12-29T16:47:13.582Z,53.38
2018-12-29T16:49:46.413Z,60.77
2018-12-29T16:52:19.667Z,54.10
2018-12-29T16:54:53.353Z,59.03
2018-12-29T16:57:26.529Z,56.90
2018-12-29T16:59:59.654Z,68.70
2018-12-29T17:02:32.701Z,57.93
2018-12-29T17:05:06.546Z,63.73
2018-12-29T17:07:39.611Z,64.07
2018-12-29T17:10:12.911Z,65.90
2018-12-29T17:12:46.058Z,62.93
2018-12-29T17:15:19.200Z,58.00
2018-12-29T17:17:52.301Z,64.33
2018-12-29T17:20:25.370Z,53.70
2018-12-29T17:22:58.657Z,61.33
2018-12-29T17:25:32.112Z,55.17
2018-12-29T17:28:05.362Z,58.57
2018-12-29T17:30:38.537Z,55.00
2018-12-29T17:33:11.989Z,56.53
2018-12-29T17:35:45.058Z,57.13
2018-12-29T17:38:18.662Z,55.77
2018-12-29T17:40:51.582Z,63.17
2018-12-29T17:43:24.803Z,60.37
2018-12-29T17:45:57.899Z,54.40
2018-12-29T17:48:31.175Z,59.53
2018-12-29T17:51:04.307Z,67.20
2018-12-29T17:53:37.869Z,55.60
2018-12-29T17:56:11.317Z,66.93
2018-12-29T17:58:44.213Z,53.80
2018-12-29T18:01:17.338Z,57.23
2018-12-29T18:03:50.463Z,50.83
2018-12-29T18:06:23.604Z,54.73
2018-12-29T18:08:57.048Z,50.80
2018-12-29T18:11:30.300Z,50.23
2018-12-29T18:14:03.370Z,58.27
2018-12-29T18:16:36.882Z,48.53
2018-12-29T18:19:10.091Z,48.03
2018-12-29T18:21:43.361Z,53.30
2018-12-29T18:24:16.532Z,53.77
2018-12-29T18:26:49.705Z,60.80
2018-12-29T18:29:22.875Z,50.57
2018-12-29T18:31:56.201Z,54.93
2018-12-29T18:34:29.713Z,60.83
2018-12-29T18:37:02.758Z,57.43
2018-12-29T18:39:35.670Z,58.50
2018-12-29T18:42:08.729Z,81.93
2018-12-29T18:44:41.807Z,63.17
2018-12-29T18:47:14.869Z,52.87
2018-12-29T18:49:47.973Z,55.53
2018-12-29T18:52:20.985Z,54.90
2018-12-29T18:54:54.143Z,58.80
2018-12-29T18:57:27.317Z,61.13
2018-12-29T19:00:03.815Z,61.27
2018-12-29T19:02:36.741Z,68.20
2018-12-29T19:05:09.950Z,68.45
2018-12-29T19:07:43.109Z,67.77
2018-12-29T19:10:16.237Z,75.50
2018-12-29T19:12:49.300Z,63.25
2018-12-29T19:15:22.696Z,73.57
2018-12-29T19:17:56.058Z,60.63
2018-12-29T19:20:29.328Z,69.33
2018-12-29T19:23:03.468Z,61.37
2018-12-29T19:25:36.527Z,64.57
2018-12-29T19:28:09.761Z,67.00
2018-12-29T19:31:02.779Z,57.43
2018-12-29T19:33:36.305Z,64.27
2018-12-29T19:36:09.730Z,61.20
2018-12-29T19:38:42.924Z,62.10
2018-12-29T19:41:16.800Z,61.00
2018-12-29T19:43:50.097Z,53.50
2018-12-29T19:46:23.678Z,57.43
2018-12-29T19:48:56.701Z,56.73
2018-12-29T19:51:30.079Z,58.73
2018-12-29T19:54:03.231Z,60.43
2018-12-29T19:56:36.487Z,47.98
2018-12-29T19:59:09.881Z,74.37
2018-12-29T20:01:43.199Z,61.17
2018-12-29T20:04:16.643Z,44.07
2018-12-29T20:06:49.774Z,46.63
2018-12-29T20:09:22.812Z,58.17
2018-12-29T20:11:55.649Z,52.37
2018-12-29T20:14:28.578Z,43.37
2018-12-29T20:17:01.638Z,43.13
2018-12-29T20:19:34.469Z,46.10
2018-12-29T20:22:07.555Z,57.80
2018-12-29T20:24:40.617Z,40.33
2018-12-29T20:27:13.600Z,39.60
2018-12-29T20:29:46.634Z,35.83
2018-12-29T20:32:22.878Z,36.33
2018-12-29T20:34:55.584Z,56.27
2018-12-29T20:37:28.223Z,44.33
2018-12-29T20:40:00.998Z,39.50
2018-12-29T20:42:34.267Z,36.23
2018-12-29T20:45:07.500Z,39.98
2018-12-29T20:47:40.540Z,41.60
2018-12-29T20:50:13.494Z,43.17
2018-12-29T20:52:46.722Z,37.00
2018-12-29T20:55:19.718Z,41.93
2018-12-29T20:57:52.696Z,43.87
2018-12-29T21:00:25.678Z,37.60
2018-12-29T21:02:58.878Z,46.33
2018-12-29T21:05:32.284Z,46.30
2018-12-29T21:08:05.415Z,37.93
2018-12-29T21:10:38.487Z,44.77
2018-12-29T21:13:12.222Z,44.63
2018-12-29T21:15:46.552Z,51.65
2018-12-29T21:18:19.484Z,43.20
2018-12-29T21:20:52.734Z,50.10
2018-12-29T21:23:26.261Z,50.23
2018-12-29T21:26:01.203Z,50.10
2018-12-29T21:28:33.954Z,63.23
2018-12-29T21:31:07.061Z,46.47
2018-12-29T21:33:40.267Z,48.10
2018-12-29T21:36:13.257Z,52.07
2018-12-29T21:38:46.419Z,50.50
2018-12-29T21:41:19.703Z,48.23
2018-12-29T21:43:53.249Z,52.15
2018-12-29T21:46:26.359Z,48.27
2018-12-29T21:48:59.510Z,44.07
2018-12-29T21:51:32.978Z,49.67
2018-12-29T21:54:07.667Z,48.83
2018-12-29T21:56:40.441Z,48.63
2018-12-29T21:59:15.303Z,50.40
2018-12-29T22:01:47.702Z,46.45
2018-12-29T22:04:21.106Z,49.08
2018-12-29T22:06:54.302Z,45.53
2018-12-29T22:09:27.360Z,38.83
2018-12-29T22:12:00.493Z,44.60
2018-12-29T22:14:33.899Z,44.23
2018-12-29T22:17:07.566Z,49.47
2018-12-29T22:19:40.637Z,36.42
2018-12-29T22:22:13.758Z,46.37
2018-12-29T22:24:47.264Z,48.83
2018-12-29T22:27:20.284Z,41.83
2018-12-29T22:29:53.737Z,39.08
2018-12-29T22:32:26.745Z,31.17
2018-12-29T22:35:00.042Z,40.50
2018-12-29T22:37:33.242Z,42.73
2018-12-29T22:40:06.866Z,49.67
2018-12-29T22:42:39.734Z,48.67
2018-12-29T22:45:15.023Z,39.67
2018-12-29T22:47:47.251Z,33.60
2018-12-29T22:50:20.162Z,33.63
2018-12-29T22:52:53.320Z,33.58
2018-12-29T22:55:26.640Z,33.00
2018-12-29T22:57:59.779Z,38.33
2018-12-29T23:00:32.933Z,34.47
2018-12-29T23:03:06.171Z,37.33
2018-12-29T23:05:39.183Z,34.20
2018-12-29T23:08:12.349Z,33.73
2018-12-29T23:10:45.360Z,32.27
2018-12-29T23:13:18.343Z,28.27
2018-12-29T23:15:51.381Z,32.30
2018-12-29T23:18:24.381Z,30.43
2018-12-29T23:20:57.421Z,31.05
2018-12-29T23:23:30.483Z,38.87
2018-12-29T23:26:03.556Z,28.87
2018-12-29T23:28:36.786Z,26.70
2018-12-29T23:31:10.368Z,40.50
2018-12-29T23:33:43.563Z,34.20
2018-12-29T23:36:16.743Z,35.03
2018-12-29T23:38:49.745Z,31.23
2018-12-29T23:41:22.669Z,35.23
2018-12-29T23:43:55.976Z,35.00
2018-12-29T23:46:28.712Z,26.63
2018-12-29T23:49:01.757Z,28.90
2018-12-29T23:51:34.796Z,35.03
2018-12-29T23:54:07.873Z,34.70
2018-12-29T23:56:41.160Z,39.50
2018-12-29T23:59:14.281Z,33.03
